createdAt,value
2023-05-02T00:01:06.145Z,8.73
2023-05-02T00:05:17.819Z,8.02
2023-05-02T00:09:30.170Z,7.50
2023-05-02T00:13:43.712Z,8.27
2023-05-02T00:17:55.489Z,7.10
2023-05-02T00:22:07.118Z,6.93
2023-05-02T00:26:18.714Z,6.78
2023-05-02T00:30:31.435Z,7.28
2023-05-02T00:34:43.014Z,7.50
2023-05-02T00:38:54.595Z,6.80
2023-05-02T00:43:06.364Z,7.10
2023-05-02T00:47:18.095Z,6.80
2023-05-02T00:51:29.865Z,6.50
2023-05-02T00:55:41.570Z,6.57
2023-05-02T00:59:53.183Z,6.97
2023-05-02T01:04:04.807Z,7.05
2023-05-02T01:08:40.279Z,7.43
2023-05-02T01:13:03.282Z,7.68
2023-05-02T01:17:16.356Z,6.53
2023-05-02T01:21:28.657Z,7.00
2023-05-02T01:25:56.780Z,7.43
2023-05-02T01:30:11.715Z,7.80
2023-05-02T01:34:23.888Z,6.88
2023-05-02T01:38:38.431Z,6.95
2023-05-02T01:42:52.689Z,7.50
2023-05-02T01:47:05.949Z,7.68
2023-05-02T01:51:19.215Z,7.75
2023-05-02T01:55:31.839Z,6.53
2023-05-02T01:59:44.420Z,6.18
2023-05-02T02:03:57.837Z,5.70
2023-05-02T02:08:09.480Z,5.85
2023-05-02T02:12:54.441Z,4.85
2023-05-02T02:17:13.272Z,4.93
2023-05-02T02:21:27.679Z,4.25
2023-05-02T02:25:40.332Z,3.97
2023-05-02T02:29:51.977Z,3.97
2023-05-02T02:34:03.755Z,3.80
2023-05-02T02:38:36.432Z,2.67
2023-05-02T02:43:19.623Z,2.45
2023-05-02T02:47:44.148Z,2.80
2023-05-02T02:52:08.166Z,2.35
2023-05-02T02:56:28.812Z,2.53
2023-05-02T03:00:41.012Z,1.88
2023-05-02T03:04:54.881Z,2.20
2023-05-02T03:09:06.485Z,2.10
2023-05-02T03:13:18.102Z,2.00
2023-05-02T03:17:30.650Z,1.90
2023-05-02T03:21:43.366Z,1.83
2023-05-02T03:26:00.702Z,1.85
2023-05-02T03:30:12.441Z,1.90
2023-05-02T03:34:24.067Z,2.22
2023-05-02T03:38:37.270Z,2.08
2023-05-02T03:42:52.707Z,2.05
2023-05-02T03:47:11.417Z,1.70
2023-05-02T03:51:27.108Z,1.70
2023-05-02T03:55:42.456Z,2.00
2023-05-02T03:59:59.140Z,1.98
2023-05-02T04:04:13.118Z,2.35
2023-05-02T04:08:31.428Z,1.80
2023-05-02T04:12:44.383Z,1.77
2023-05-02T04:16:57.355Z,2.05
2023-05-02T04:21:28.566Z,1.83
2023-05-02T04:25:40.123Z,1.95
2023-05-02T04:29:52.433Z,1.50
2023-05-02T04:34:04.718Z,1.80
2023-05-02T04:38:21.677Z,1.80
2023-05-02T04:42:34.954Z,1.30
2023-05-02T04:46:55.477Z,1.65
2023-05-02T04:51:07.421Z,1.50
2023-05-02T04:55:19.158Z,1.50
2023-05-02T04:59:30.805Z,1.65
2023-05-02T05:03:43.289Z,1.33
2023-05-02T05:07:55.120Z,1.33
2023-05-02T05:12:08.610Z,1.77
2023-05-02T05:16:21.453Z,1.75
2023-05-02T05:20:33.638Z,1.15
2023-05-02T05:24:56.364Z,1.40
2023-05-02T05:29:13.351Z,1.70
2023-05-02T05:33:26.912Z,1.80
2023-05-02T05:37:39.504Z,1.80
2023-05-02T05:41:54.616Z,1.50
2023-05-02T05:46:07.515Z,1.33
2023-05-02T05:50:21.360Z,2.00
2023-05-02T05:54:33.220Z,1.83
2023-05-02T05:58:45.911Z,1.93
2023-05-02T06:02:59.375Z,1.95
2023-05-02T06:07:14.845Z,1.85
2023-05-02T06:11:26.634Z,1.80
2023-05-02T06:15:38.286Z,1.70
2023-05-02T06:19:51.477Z,1.95
2023-05-02T06:24:03.109Z,1.90
2023-05-02T06:28:14.621Z,2.35
2023-05-02T06:32:30.391Z,1.95
2023-05-02T06:36:41.908Z,1.67
2023-05-02T06:40:53.400Z,1.70
2023-05-02T06:45:05.267Z,2.42
2023-05-02T06:49:16.995Z,2.08
2023-05-02T06:53:29.101Z,1.95
2023-05-02T06:58:12.978Z,2.05
2023-05-02T07:02:24.522Z,1.58
2023-05-02T07:06:36.226Z,1.48
2023-05-02T07:10:47.866Z,1.17
2023-05-02T07:14:59.512Z,1.17
2023-05-02T07:19:11.694Z,1.08
2023-05-02T07:23:23.306Z,1.67
2023-05-02T07:27:35.037Z,1.50
2023-05-02T07:31:46.955Z,1.40
2023-05-02T07:35:58.596Z,1.42
2023-05-02T07:40:11.422Z,1.40
2023-05-02T07:44:23.050Z,1.70
2023-05-02T07:48:34.841Z,1.17
2023-05-02T07:52:46.407Z,1.30
2023-05-02T07:57:02.124Z,1.40
2023-05-02T08:01:13.846Z,1.63
2023-05-02T08:05:25.512Z,2.30
2023-05-02T08:09:37.089Z,1.48
2023-05-02T08:13:48.676Z,1.58
2023-05-02T08:18:00.614Z,1.95
2023-05-02T08:22:12.138Z,1.85
2023-05-02T08:26:24.758Z,1.52
2023-05-02T08:30:36.465Z,1.20
2023-05-02T08:34:48.181Z,1.30
2023-05-02T08:38:59.927Z,1.10
2023-05-02T08:43:12.808Z,1.10
2023-05-02T08:47:26.170Z,1.27
2023-05-02T08:51:39.450Z,1.20
2023-05-02T08:55:53.516Z,1.48
2023-05-02T09:00:06.059Z,1.58
2023-05-02T09:04:23.873Z,1.00
2023-05-02T09:08:36.904Z,1.42
2023-05-02T09:12:48.584Z,1.10
2023-05-02T09:17:01.074Z,1.27
2023-05-02T09:21:21.572Z,1.27
2023-05-02T09:25:37.767Z,1.05
2023-05-02T09:29:49.459Z,1.15
2023-05-02T09:34:27.450Z,1.30
2023-05-02T09:38:39.204Z,1.30
2023-05-02T09:42:52.260Z,1.60
2023-05-02T09:47:04.002Z,1.15
2023-05-02T09:51:18.288Z,1.23
2023-05-02T09:55:30.588Z,1.00
2023-05-02T09:59:53.043Z,1.20
2023-05-02T10:04:05.082Z,1.00
2023-05-02T10:08:19.035Z,1.35
2023-05-02T10:12:32.755Z,1.35
2023-05-02T10:17:08.708Z,1.02
2023-05-02T10:21:27.486Z,1.50
2023-05-02T10:25:39.904Z,1.60
2023-05-02T10:29:52.812Z,1.20
2023-05-02T10:34:05.661Z,1.60
2023-05-02T10:44:32.042Z,1.23
2023-05-02T10:49:00.600Z,1.35
2023-05-02T10:53:25.529Z,1.35
2023-05-02T10:57:56.912Z,1.58
2023-05-02T11:02:24.068Z,1.50
2023-05-02T11:06:38.159Z,1.65
2023-05-02T11:10:49.860Z,1.15
2023-05-02T11:15:01.698Z,1.70
2023-05-02T11:19:13.571Z,1.67
2023-05-02T11:23:26.186Z,1.25
2023-05-02T11:27:38.582Z,1.40
2023-05-02T11:31:54.996Z,1.75
2023-05-02T11:36:06.950Z,1.70
2023-05-02T11:40:19.158Z,1.75
2023-05-02T11:44:31.022Z,1.25
2023-05-02T11:48:42.935Z,1.80
2023-05-02T11:52:54.704Z,1.80
2023-05-02T11:57:06.499Z,1.60
2023-05-02T12:01:18.295Z,1.73
2023-05-02T12:05:30.467Z,1.67
2023-05-02T12:09:53.059Z,1.42
2023-05-02T12:14:06.387Z,1.60
2023-05-02T12:18:21.964Z,2.25
2023-05-02T12:22:34.314Z,1.50
2023-05-02T12:26:46.276Z,1.48
2023-05-02T12:30:58.037Z,1.38
2023-05-02T12:35:22.929Z,2.03
2023-05-02T12:39:45.061Z,1.92
2023-05-02T12:43:58.431Z,1.88
2023-05-02T12:48:22.210Z,2.08
2023-05-02T12:52:46.394Z,1.67
2023-05-02T12:56:58.171Z,2.03
2023-05-02T13:01:10.679Z,2.53
2023-05-02T13:05:22.516Z,2.20
2023-05-02T13:09:34.162Z,1.88
2023-05-02T13:13:45.957Z,2.05
2023-05-02T13:17:57.754Z,2.42
2023-05-02T13:22:09.597Z,1.83
2023-05-02T13:26:21.324Z,1.77
2023-05-02T13:30:33.373Z,1.65
2023-05-02T13:34:45.368Z,1.48
2023-05-02T13:38:57.813Z,2.03
2023-05-02T13:43:12.722Z,2.00
2023-05-02T13:47:24.571Z,2.00
2023-05-02T13:51:36.439Z,2.05
2023-05-02T13:55:48.179Z,2.05
2023-05-02T14:00:00.277Z,2.08
2023-05-02T14:04:12.345Z,2.15
2023-05-02T14:08:24.129Z,1.80
2023-05-02T14:12:36.177Z,2.00
2023-05-02T14:16:50.227Z,1.85
2023-05-02T14:21:03.277Z,2.00
2023-05-02T14:25:15.779Z,2.00
2023-05-02T14:29:27.471Z,2.03
2023-05-02T14:33:39.111Z,2.03
2023-05-02T14:37:50.792Z,1.63
2023-05-02T14:42:04.274Z,2.15
2023-05-02T14:46:16.171Z,2.20
2023-05-02T14:50:27.908Z,1.92
2023-05-02T14:54:39.657Z,1.30
2023-05-02T14:58:51.288Z,2.10
2023-05-02T15:03:05.178Z,2.00
2023-05-02T15:07:19.267Z,1.90
2023-05-02T15:11:31.230Z,1.67
2023-05-02T15:15:43.000Z,1.70
2023-05-02T15:19:56.337Z,1.60
2023-05-02T15:24:10.559Z,1.45
2023-05-02T15:28:22.207Z,1.90
2023-05-02T15:32:34.024Z,1.55
2023-05-02T15:36:45.631Z,2.17
2023-05-02T15:40:58.603Z,1.65
2023-05-02T15:45:13.502Z,2.05
2023-05-02T15:49:31.595Z,1.80
2023-05-02T15:53:44.886Z,1.63
2023-05-02T15:57:57.067Z,2.08
2023-05-02T16:02:08.809Z,1.58
2023-05-02T16:06:20.550Z,1.65
2023-05-02T16:10:32.624Z,1.55
2023-05-02T16:14:44.864Z,1.90
2023-05-02T16:18:56.505Z,1.42
2023-05-02T16:23:08.415Z,1.65
2023-05-02T16:27:20.337Z,1.63
2023-05-02T16:31:32.176Z,1.70
2023-05-02T16:35:43.880Z,1.83
2023-05-02T16:39:57.457Z,1.67
2023-05-02T16:44:10.411Z,1.50
2023-05-02T16:48:22.926Z,1.40
2023-05-02T16:52:36.597Z,1.23
2023-05-02T16:56:48.514Z,1.42
2023-05-02T17:01:01.240Z,1.63
2023-05-02T17:05:12.947Z,1.20
2023-05-02T17:09:24.528Z,1.30
2023-05-02T17:13:36.768Z,1.27
2023-05-02T17:17:48.384Z,1.40
2023-05-02T17:22:01.342Z,1.30
2023-05-02T17:26:15.802Z,1.17
2023-05-02T17:30:27.377Z,1.05
2023-05-02T17:34:38.980Z,1.10
2023-05-02T17:38:50.570Z,1.20
2023-05-02T17:43:02.319Z,1.30
2023-05-02T17:47:14.134Z,1.20
2023-05-02T17:51:25.769Z,1.35
2023-05-02T17:55:37.704Z,1.02
2023-05-02T17:59:50.662Z,1.08
2023-05-02T18:04:03.880Z,1.00
2023-05-02T18:08:15.807Z,1.02
2023-05-02T18:12:27.605Z,1.13
2023-05-02T18:16:39.304Z,1.15
2023-05-02T18:20:51.091Z,1.10
2023-05-02T18:25:03.243Z,1.48
2023-05-02T18:29:15.331Z,1.50
2023-05-02T18:33:26.946Z,1.10
2023-05-02T18:37:38.608Z,1.35
2023-05-02T18:41:50.175Z,1.10
2023-05-02T18:46:01.900Z,1.20
2023-05-02T18:50:13.645Z,1.10
2023-05-02T18:54:26.248Z,1.00
2023-05-02T18:58:37.873Z,1.13
2023-05-02T19:02:54.527Z,1.13
2023-05-02T19:07:06.561Z,0.73
2023-05-02T19:11:19.591Z,1.17
2023-05-02T19:15:33.448Z,0.98
2023-05-02T19:19:47.980Z,1.05
2023-05-02T19:24:00.159Z,0.95
2023-05-02T19:28:16.849Z,1.00
2023-05-02T19:32:28.756Z,1.10
2023-05-02T19:36:40.395Z,0.85
2023-05-02T19:40:52.024Z,1.08
2023-05-02T19:45:04.009Z,1.17
2023-05-02T19:49:18.542Z,0.97
2023-05-02T19:53:31.976Z,1.30
2023-05-02T19:57:44.654Z,0.93
2023-05-02T20:01:56.311Z,1.50
2023-05-02T20:06:07.908Z,1.00
2023-05-02T20:10:19.593Z,1.50
2023-05-02T20:14:31.848Z,0.87
2023-05-02T20:18:43.499Z,1.47
2023-05-02T20:22:55.144Z,1.30
2023-05-02T20:27:06.771Z,1.33
2023-05-02T20:31:18.306Z,1.03
2023-05-02T20:35:29.823Z,1.20
2023-05-02T20:39:41.546Z,1.50
2023-05-02T20:43:57.193Z,1.20
2023-05-02T20:48:08.964Z,0.97
2023-05-02T20:52:21.028Z,0.90
2023-05-02T20:56:32.576Z,1.10
2023-05-02T21:00:45.759Z,1.13
2023-05-02T21:04:57.489Z,1.40
2023-05-02T21:09:09.565Z,1.00
2023-05-02T21:13:21.948Z,1.00
2023-05-02T21:17:33.602Z,1.20
2023-05-02T21:21:45.671Z,1.07
2023-05-02T21:25:57.466Z,1.30
2023-05-02T21:30:10.164Z,1.10
2023-05-02T21:34:21.748Z,1.00
2023-05-02T21:38:33.422Z,1.33
2023-05-02T21:42:45.021Z,1.33
2023-05-02T21:46:56.653Z,1.40
2023-05-02T21:51:12.093Z,1.27
2023-05-02T21:55:23.689Z,1.17
2023-05-02T21:59:35.896Z,0.93
2023-05-02T22:03:47.401Z,1.43
2023-05-02T22:08:00.683Z,1.20
2023-05-02T22:12:12.208Z,1.40
2023-05-02T22:16:23.941Z,1.43
2023-05-02T22:20:36.183Z,1.40
2023-05-02T22:24:47.805Z,1.03
2023-05-02T22:28:59.391Z,1.30
2023-05-02T22:33:11.111Z,1.20
2023-05-02T22:37:22.687Z,1.53
2023-05-02T22:41:34.327Z,1.13
2023-05-02T22:45:46.413Z,1.40
2023-05-02T22:49:59.491Z,1.40
2023-05-02T22:54:11.303Z,1.43
2023-05-02T22:58:22.854Z,1.50
2023-05-02T23:02:34.615Z,1.70
2023-05-02T23:06:46.323Z,1.40
2023-05-02T23:10:57.911Z,1.80
2023-05-02T23:15:10.103Z,1.70
2023-05-02T23:19:21.792Z,2.03
2023-05-02T23:23:33.397Z,1.90
2023-05-02T23:27:45.014Z,1.60
2023-05-02T23:31:56.713Z,1.50
2023-05-02T23:36:08.894Z,1.50
2023-05-02T23:40:20.638Z,1.40
2023-05-02T23:44:32.435Z,1.50
2023-05-02T23:48:44.053Z,1.43
2023-05-02T23:52:55.602Z,1.03
2023-05-02T23:57:08.216Z,1.50
